createdAt,value
2022-08-25T00:00:21.985Z,96054.16
2022-08-25T00:03:09.190Z,96063.50
2022-08-25T00:05:56.255Z,96058.22
2022-08-25T00:08:43.752Z,96054.88
2022-08-25T00:11:32.770Z,96055.44
2022-08-25T00:14:30.030Z,96051.41
2022-08-25T00:17:17.153Z,96059.00
2022-08-25T00:20:06.093Z,96060.66
2022-08-25T00:22:53.048Z,96058.03
2022-08-25T00:25:40.072Z,96057.72
2022-08-25T00:28:27.156Z,96060.38
2022-08-25T00:31:18.314Z,96060.44
2022-08-25T00:34:11.652Z,96050.69
2022-08-25T00:36:58.671Z,96051.81
2022-08-25T00:39:46.916Z,96052.09
2022-08-25T00:42:33.973Z,96047.78
2022-08-25T00:45:22.125Z,96054.28
2022-08-25T00:48:09.539Z,96051.38
2022-08-25T00:50:56.560Z,96048.41
2022-08-25T00:53:44.491Z,96045.31
2022-08-25T00:56:32.128Z,96048.06
2022-08-25T00:59:21.425Z,96036.94
2022-08-25T01:02:10.108Z,96043.88
2022-08-25T01:04:58.393Z,96036.69
2022-08-25T01:07:46.097Z,96042.41
2022-08-25T01:10:38.633Z,96044.03
2022-08-25T01:13:35.438Z,96042.00
2022-08-25T01:16:23.348Z,96030.47
2022-08-25T01:19:15.213Z,96030.03
2022-08-25T01:22:02.589Z,96031.22
2022-08-25T01:25:07.792Z,96034.00
2022-08-25T01:27:55.148Z,96027.50
2022-08-25T01:30:42.872Z,96025.94
2022-08-25T01:33:29.943Z,96025.28
2022-08-25T01:36:21.008Z,96024.84
2022-08-25T01:39:08.153Z,96022.41
2022-08-25T01:42:19.657Z,96024.34
2022-08-25T01:45:07.279Z,96025.78
2022-08-25T01:47:54.356Z,96027.78
2022-08-25T01:50:43.976Z,96026.09
2022-08-25T01:53:33.243Z,96022.34
2022-08-25T01:56:20.587Z,96017.78
2022-08-25T01:59:07.909Z,96019.19
2022-08-25T02:01:59.871Z,96018.38
2022-08-25T02:04:47.805Z,96016.66
2022-08-25T02:07:36.069Z,96013.31
2022-08-25T02:10:24.099Z,96012.97
2022-08-25T02:13:11.059Z,96011.94
2022-08-25T02:16:00.283Z,96006.53
2022-08-25T02:18:47.972Z,96010.53
2022-08-25T02:21:35.424Z,96004.69
2022-08-25T02:24:22.775Z,95999.34
2022-08-25T02:27:10.701Z,96004.44
2022-08-25T02:29:58.170Z,95995.16
2022-08-25T02:32:45.176Z,96002.91
2022-08-25T02:35:32.520Z,95998.72
2022-08-25T02:38:19.515Z,96001.59
2022-08-25T02:41:13.299Z,95999.09
2022-08-25T02:44:01.415Z,95998.44
2022-08-25T02:46:48.507Z,96002.78
2022-08-25T02:49:35.629Z,95997.53
2022-08-25T02:52:22.569Z,95998.81
2022-08-25T02:55:14.299Z,95998.28
2022-08-25T02:58:01.624Z,96001.44
2022-08-25T03:00:49.500Z,96009.06
2022-08-25T03:03:39.416Z,95999.31
2022-08-25T03:06:28.058Z,95991.03
2022-08-25T03:09:15.809Z,96001.63
2022-08-25T03:12:03.031Z,96002.13
2022-08-25T03:14:50.043Z,96000.50
2022-08-25T03:17:38.388Z,95995.13
2022-08-25T03:20:26.146Z,95995.38
2022-08-25T03:23:13.119Z,95988.84
2022-08-25T03:26:18.995Z,95999.97
2022-08-25T03:29:06.569Z,95995.59
2022-08-25T03:31:55.141Z,95994.69
2022-08-25T03:34:42.430Z,95989.13
2022-08-25T03:37:29.396Z,95994.94
2022-08-25T03:40:17.723Z,95992.31
2022-08-25T03:43:04.936Z,95995.28
2022-08-25T03:45:52.065Z,95998.88
2022-08-25T03:48:39.063Z,95999.16
2022-08-25T03:51:29.653Z,95990.78
2022-08-25T03:54:19.473Z,95992.75
2022-08-25T03:57:06.665Z,95983.66
2022-08-25T03:59:53.652Z,95994.13
2022-08-25T04:02:41.817Z,95990.16
2022-08-25T04:05:28.884Z,95987.66
2022-08-25T04:08:16.404Z,96003.06
2022-08-25T04:11:15.002Z,95999.81
2022-08-25T04:14:02.730Z,96001.06
2022-08-25T04:16:50.286Z,96000.75
2022-08-25T04:19:38.308Z,96003.22
2022-08-25T04:22:25.402Z,96013.00
2022-08-25T04:25:16.136Z,96011.75
2022-08-25T04:28:03.398Z,96008.38
2022-08-25T04:30:52.129Z,95997.88
2022-08-25T04:33:39.298Z,96001.81
2022-08-25T04:36:26.403Z,96000.94
2022-08-25T04:39:13.800Z,96001.75
2022-08-25T04:42:01.373Z,95994.59
2022-08-25T04:44:48.815Z,95998.16
2022-08-25T04:47:40.036Z,95995.22
2022-08-25T04:50:27.034Z,96001.84
2022-08-25T04:53:14.704Z,95999.84
2022-08-25T04:56:03.872Z,96003.25
2022-08-25T04:58:51.866Z,96001.44
2022-08-25T05:01:40.053Z,96002.34
2022-08-25T05:04:28.483Z,96000.56
2022-08-25T05:07:15.950Z,96007.94
2022-08-25T05:10:02.927Z,96009.81
2022-08-25T05:12:50.002Z,96007.34
2022-08-25T05:15:51.928Z,96007.00
2022-08-25T05:18:39.257Z,96003.66
2022-08-25T05:21:28.993Z,95999.03
2022-08-25T05:24:16.004Z,96002.09
2022-08-25T05:27:04.059Z,96002.34
2022-08-25T05:29:51.146Z,96007.25
2022-08-25T05:32:38.635Z,96005.88
2022-08-25T05:35:25.713Z,96000.16
2022-08-25T05:38:15.359Z,95993.91
2022-08-25T05:41:05.828Z,95985.16
2022-08-25T05:43:52.862Z,95988.50
2022-08-25T05:46:40.024Z,95994.75
2022-08-25T05:49:27.502Z,95985.56
2022-08-25T05:52:18.155Z,95991.19
2022-08-25T05:55:08.115Z,95988.91
2022-08-25T05:57:55.228Z,95976.84
2022-08-25T06:00:42.497Z,95970.81
2022-08-25T06:03:29.864Z,95956.22
2022-08-25T06:06:17.193Z,95954.69
2022-08-25T06:09:05.282Z,95940.94
2022-08-25T06:11:55.240Z,95947.72
2022-08-25T06:14:42.528Z,95944.88
2022-08-25T06:17:29.628Z,95940.72
2022-08-25T06:20:22.194Z,95936.94
2022-08-25T06:23:13.344Z,95931.75
2022-08-25T06:26:00.483Z,95931.13
2022-08-25T06:28:47.440Z,95930.44
2022-08-25T06:31:34.431Z,95934.16
2022-08-25T06:34:23.799Z,95936.09
2022-08-25T06:37:11.245Z,95930.38
2022-08-25T06:39:58.617Z,95940.34
2022-08-25T06:42:49.616Z,95931.28
2022-08-25T06:45:36.735Z,95942.28
2022-08-25T06:48:24.075Z,95921.03
2022-08-25T06:51:14.396Z,95929.66
2022-08-25T06:54:01.905Z,95918.44
2022-08-25T06:56:49.605Z,95921.13
2022-08-25T06:59:38.171Z,95919.94
2022-08-25T07:02:28.723Z,95929.28
2022-08-25T07:05:27.283Z,95919.28
2022-08-25T07:08:21.284Z,95929.91
2022-08-25T07:11:15.971Z,95932.56
2022-08-25T07:14:06.403Z,95920.13
2022-08-25T07:16:53.452Z,95926.69
2022-08-25T07:19:40.956Z,95925.41
2022-08-25T07:22:28.189Z,95921.09
2022-08-25T07:25:15.417Z,95912.59
2022-08-25T07:28:05.079Z,95926.78
2022-08-25T07:30:52.400Z,95922.38
2022-08-25T07:33:59.503Z,95917.91
2022-08-25T07:36:46.946Z,95909.56
2022-08-25T07:39:34.630Z,95918.88
2022-08-25T07:42:21.917Z,95934.63
2022-08-25T07:45:11.026Z,95923.84
2022-08-25T07:48:00.535Z,95930.56
2022-08-25T07:50:49.504Z,95923.97
2022-08-25T07:53:36.619Z,95926.44
2022-08-25T07:56:25.193Z,95909.13
2022-08-25T07:59:12.556Z,95926.06
2022-08-25T08:01:59.703Z,95914.81
2022-08-25T08:04:49.773Z,95903.84
2022-08-25T08:07:43.054Z,95903.97
2022-08-25T08:10:53.863Z,95902.75
2022-08-25T08:13:41.287Z,95898.41
2022-08-25T08:16:30.098Z,95906.53
2022-08-25T08:19:17.835Z,95897.75
2022-08-25T08:22:11.679Z,95895.50
2022-08-25T08:24:58.764Z,95891.94
2022-08-25T08:27:46.280Z,95895.59
2022-08-25T08:30:33.517Z,95893.06
2022-08-25T08:33:23.129Z,95895.09
2022-08-25T08:36:12.454Z,95901.31
2022-08-25T08:39:00.372Z,95904.00
2022-08-25T08:42:18.749Z,95896.06
2022-08-25T08:45:27.340Z,95901.47
2022-08-25T08:48:35.386Z,95898.41
2022-08-25T08:51:33.429Z,95885.41
2022-08-25T08:54:26.462Z,95896.97
2022-08-25T08:57:19.633Z,95885.09
2022-08-25T09:00:08.722Z,95894.06
2022-08-25T09:03:03.151Z,95895.09
2022-08-25T09:05:56.404Z,95884.41
2022-08-25T09:08:44.933Z,95880.75
2022-08-25T09:11:52.821Z,95886.50
2022-08-25T09:14:55.536Z,95875.84
2022-08-25T09:18:08.453Z,95873.38
2022-08-25T09:21:36.077Z,95871.03
2022-08-25T09:24:59.953Z,95875.50
2022-08-25T09:27:53.943Z,95870.25
2022-08-25T09:30:50.892Z,95877.38
2022-08-25T09:33:37.896Z,95881.03
2022-08-25T09:36:25.112Z,95874.44
2022-08-25T09:39:12.447Z,95861.66
2022-08-25T09:42:00.498Z,95856.94
2022-08-25T09:44:48.892Z,95855.53
2022-08-25T09:47:43.149Z,95847.66
2022-08-25T09:50:32.370Z,95839.78
2022-08-25T09:53:22.822Z,95832.41
2022-08-25T09:56:10.491Z,95831.25
2022-08-25T09:59:30.936Z,95820.88
2022-08-25T10:02:26.415Z,95827.03
2022-08-25T10:05:23.412Z,95838.94
2022-08-25T10:08:14.753Z,95834.13
2022-08-25T10:11:09.059Z,95832.41
2022-08-25T10:14:24.959Z,95822.75
2022-08-25T10:17:17.077Z,95833.25
2022-08-25T10:20:10.083Z,95832.00
2022-08-25T10:23:12.248Z,95825.88
2022-08-25T10:26:05.559Z,95803.50
2022-08-25T10:29:06.246Z,95816.97
2022-08-25T10:31:59.501Z,95800.28
2022-08-25T10:34:54.720Z,95790.13
2022-08-25T10:38:11.123Z,95790.88
2022-08-25T10:41:10.869Z,95801.28
2022-08-25T10:44:51.586Z,95799.69
2022-08-25T10:47:51.096Z,95788.91
2022-08-25T10:50:49.021Z,95771.13
2022-08-25T10:53:51.499Z,95778.94
2022-08-25T10:56:46.014Z,95774.28
2022-08-25T10:59:52.188Z,95776.38
2022-08-25T11:02:52.426Z,95774.13
2022-08-25T11:05:43.006Z,95769.69
2022-08-25T11:08:38.353Z,95760.81
2022-08-25T11:11:43.322Z,95782.28
2022-08-25T11:14:47.848Z,95770.84
2022-08-25T11:18:03.163Z,95761.72
2022-08-25T11:21:12.035Z,95765.22
2022-08-25T11:24:09.288Z,95764.78
2022-08-25T11:26:57.460Z,95753.03
2022-08-25T11:29:52.098Z,95747.19
2022-08-25T11:32:40.769Z,95767.41
2022-08-25T11:35:33.705Z,95754.69
2022-08-25T11:38:47.968Z,95756.63
2022-08-25T11:41:47.059Z,95766.09
2022-08-25T11:44:53.750Z,95756.47
2022-08-25T11:47:55.265Z,95746.50
2022-08-25T11:51:06.682Z,95737.97
2022-08-25T11:54:25.412Z,95760.56
2022-08-25T11:57:13.649Z,95744.63
2022-08-25T12:00:13.677Z,95748.03
2022-08-25T12:03:32.727Z,95750.44
2022-08-25T12:06:30.476Z,95743.09
2022-08-25T12:09:20.311Z,95743.53
2022-08-25T12:12:32.396Z,95732.47
2022-08-25T12:15:24.392Z,95745.50
2022-08-25T12:18:23.120Z,95741.78
2022-08-25T12:21:14.552Z,95733.69
2022-08-25T12:24:08.384Z,95753.06
2022-08-25T12:27:00.757Z,95765.09
2022-08-25T12:30:05.631Z,95752.88
2022-08-25T12:33:21.734Z,95751.09
2022-08-25T12:36:25.400Z,95737.06
2022-08-25T12:39:24.368Z,95719.88
2022-08-25T12:42:32.810Z,95728.56
2022-08-25T12:45:20.347Z,95724.59
2022-08-25T12:48:28.936Z,95721.28
2022-08-25T12:51:20.928Z,95747.63
2022-08-25T12:54:43.569Z,95741.66
2022-08-25T12:57:45.019Z,95730.94
2022-08-25T13:00:45.893Z,95733.53
2022-08-25T13:03:54.681Z,95716.81
2022-08-25T13:06:42.151Z,95710.06
2022-08-25T13:09:38.207Z,95721.97
2022-08-25T13:12:34.888Z,95711.53
2022-08-25T13:15:38.615Z,95707.91
2022-08-25T13:18:27.689Z,95710.28
2022-08-25T13:21:28.366Z,95700.84
2022-08-25T13:24:27.387Z,95679.94
2022-08-25T13:27:27.061Z,95680.75
2022-08-25T13:30:35.533Z,95703.34
2022-08-25T13:33:26.879Z,95696.31
2022-08-25T13:36:35.420Z,95689.16
2022-08-25T13:39:45.159Z,95677.31
2022-08-25T13:42:32.883Z,95680.22
2022-08-25T13:45:31.853Z,95682.19
2022-08-25T13:48:37.270Z,95679.44
2022-08-25T13:51:31.469Z,95682.03
2022-08-25T13:54:29.816Z,95662.03
2022-08-25T13:57:25.647Z,95661.06
2022-08-25T14:00:47.363Z,95678.28
2022-08-25T14:03:39.240Z,95673.16
2022-08-25T14:06:32.933Z,95672.81
2022-08-25T14:09:28.213Z,95667.97
2022-08-25T14:12:41.579Z,95669.69
2022-08-25T14:15:32.116Z,95670.75
2022-08-25T14:18:30.164Z,95659.63
2022-08-25T14:21:26.483Z,95669.72
2022-08-25T14:24:18.966Z,95668.91
2022-08-25T14:27:09.712Z,95689.19
2022-08-25T14:29:59.171Z,95691.63
2022-08-25T14:32:46.076Z,95691.44
2022-08-25T14:35:38.332Z,95671.41
2022-08-25T14:38:26.489Z,95656.00
2022-08-25T14:41:14.040Z,95661.63
2022-08-25T14:44:07.916Z,95657.06
2022-08-25T14:46:56.768Z,95660.81
2022-08-25T14:49:45.885Z,95663.00
2022-08-25T14:52:33.330Z,95672.34
2022-08-25T14:55:31.339Z,95661.91
2022-08-25T14:58:25.973Z,95650.94
2022-08-25T15:01:16.926Z,95647.53
2022-08-25T15:04:20.424Z,95634.75
2022-08-25T15:07:27.524Z,95652.13
2022-08-25T15:10:14.877Z,95643.81
2022-08-25T15:13:01.927Z,95646.56
2022-08-25T15:15:52.772Z,95640.53
2022-08-25T15:18:45.603Z,95641.03
2022-08-25T15:21:34.656Z,95632.47
2022-08-25T15:24:25.118Z,95642.66
2022-08-25T15:27:15.165Z,95641.63
2022-08-25T15:30:02.808Z,95632.19
2022-08-25T15:32:50.433Z,95636.41
2022-08-25T15:35:37.806Z,95639.16
2022-08-25T15:38:24.838Z,95628.34
2022-08-25T15:41:13.566Z,95625.38
2022-08-25T15:44:00.646Z,95623.63
2022-08-25T15:46:49.887Z,95614.94
2022-08-25T15:49:37.748Z,95628.53
2022-08-25T15:52:28.356Z,95628.75
2022-08-25T15:55:27.520Z,95621.97
2022-08-25T15:58:16.393Z,95624.59
2022-08-25T16:01:03.927Z,95625.41
2022-08-25T16:03:51.339Z,95623.00
2022-08-25T16:06:39.172Z,95621.94
2022-08-25T16:09:26.159Z,95612.34
2022-08-25T16:12:13.764Z,95622.47
2022-08-25T16:15:00.723Z,95626.41
2022-08-25T16:17:51.161Z,95622.59
2022-08-25T16:20:44.382Z,95613.63
2022-08-25T16:23:31.344Z,95622.50
2022-08-25T16:26:20.980Z,95617.47
2022-08-25T16:29:09.591Z,95621.38
2022-08-25T16:31:57.504Z,95614.97
2022-08-25T16:34:44.664Z,95619.09
2022-08-25T16:37:33.184Z,95614.72
2022-08-25T16:40:23.541Z,95607.19
2022-08-25T16:43:10.744Z,95605.94
2022-08-25T16:46:02.944Z,95599.50
2022-08-25T16:48:50.530Z,95599.38
2022-08-25T16:51:38.953Z,95596.59
2022-08-25T16:54:45.735Z,95595.66
2022-08-25T16:57:32.643Z,95595.19
2022-08-25T17:00:26.863Z,95594.75
2022-08-25T17:03:13.871Z,95592.75
2022-08-25T17:06:01.091Z,95588.75
2022-08-25T17:08:50.818Z,95592.81
2022-08-25T17:11:46.517Z,95594.38
2022-08-25T17:14:33.591Z,95595.81
2022-08-25T17:17:20.859Z,95600.69
2022-08-25T17:20:08.198Z,95596.66
2022-08-25T17:22:55.124Z,95597.69
2022-08-25T17:25:43.055Z,95599.44
2022-08-25T17:28:30.385Z,95600.13
2022-08-25T17:31:18.227Z,95604.00
2022-08-25T17:34:07.402Z,95609.16
2022-08-25T17:36:54.766Z,95612.06
2022-08-25T17:39:41.749Z,95621.81
2022-08-25T17:42:30.292Z,95613.78
2022-08-25T17:45:17.587Z,95625.53
2022-08-25T17:48:04.914Z,95635.59
2022-08-25T17:50:52.664Z,95638.41
2022-08-25T17:53:39.754Z,95642.84
2022-08-25T17:56:27.855Z,95641.88
2022-08-25T17:59:16.492Z,95644.91
2022-08-25T18:02:04.884Z,95639.75
2022-08-25T18:04:52.405Z,95642.69
2022-08-25T18:07:39.948Z,95636.47
2022-08-25T18:10:31.289Z,95645.78
2022-08-25T18:13:19.177Z,95659.16
2022-08-25T18:16:08.842Z,95660.97
2022-08-25T18:18:56.684Z,95669.38
2022-08-25T18:21:44.388Z,95666.22
2022-08-25T18:24:31.387Z,95653.72
2022-08-25T18:27:18.506Z,95672.25
2022-08-25T18:30:09.628Z,95667.38
2022-08-25T18:32:58.810Z,95672.81
2022-08-25T18:35:46.427Z,95672.13
2022-08-25T18:38:58.198Z,95668.22
2022-08-25T18:41:46.360Z,95674.53
2022-08-25T18:44:33.413Z,95679.97
2022-08-25T18:47:21.725Z,95673.81
2022-08-25T18:50:10.756Z,95673.72
2022-08-25T18:52:58.158Z,95675.75
2022-08-25T18:55:47.135Z,95681.72
2022-08-25T18:58:34.535Z,95684.03
2022-08-25T19:01:23.722Z,95677.31
2022-08-25T19:04:10.765Z,95685.94
2022-08-25T19:06:57.715Z,95688.22
2022-08-25T19:09:44.665Z,95688.41
2022-08-25T19:12:31.578Z,95687.59
2022-08-25T19:15:24.875Z,95691.84
2022-08-25T19:18:13.068Z,95684.88
2022-08-25T19:21:00.151Z,95696.00
2022-08-25T19:23:47.060Z,95684.38
2022-08-25T19:26:36.308Z,95678.50
2022-08-25T19:29:24.186Z,95683.81
2022-08-25T19:32:12.693Z,95683.78
2022-08-25T19:34:59.763Z,95677.56
2022-08-25T19:37:47.586Z,95692.66
2022-08-25T19:40:35.580Z,95688.03
2022-08-25T19:43:22.896Z,95685.22
2022-08-25T19:46:10.781Z,95683.25
2022-08-25T19:48:57.835Z,95686.13
2022-08-25T19:51:52.129Z,95687.09
2022-08-25T19:54:44.357Z,95689.66
2022-08-25T19:57:42.301Z,95696.97
2022-08-25T20:00:34.212Z,95701.50
2022-08-25T20:03:24.197Z,95693.91
2022-08-25T20:06:11.152Z,95699.34
2022-08-25T20:09:00.420Z,95691.09
2022-08-25T20:11:47.856Z,95705.59
2022-08-25T20:14:36.712Z,95699.81
2022-08-25T20:17:26.368Z,95704.50
2022-08-25T20:20:18.956Z,95702.66
2022-08-25T20:23:24.929Z,95701.16
2022-08-25T20:26:12.596Z,95706.63
2022-08-25T20:28:59.833Z,95694.56
2022-08-25T20:31:47.725Z,95703.31
2022-08-25T20:34:35.518Z,95695.97
2022-08-25T20:37:22.952Z,95696.50
2022-08-25T20:40:13.119Z,95704.13
2022-08-25T20:43:04.754Z,95706.28
2022-08-25T20:46:04.601Z,95698.19
2022-08-25T20:48:52.444Z,95693.41
2022-08-25T20:51:40.627Z,95690.19
2022-08-25T20:54:29.525Z,95690.13
2022-08-25T20:57:25.742Z,95688.72
2022-08-25T21:00:14.463Z,95694.56
2022-08-25T21:03:02.668Z,95703.75
2022-08-25T21:05:54.016Z,95705.47
2022-08-25T21:08:47.525Z,95704.16
2022-08-25T21:11:36.375Z,95705.50
2022-08-25T21:14:25.373Z,95710.25
2022-08-25T21:17:15.576Z,95711.44
2022-08-25T21:20:08.668Z,95717.88
2022-08-25T21:23:04.768Z,95714.72
2022-08-25T21:25:53.721Z,95718.88
2022-08-25T21:28:40.930Z,95715.03
2022-08-25T21:31:36.058Z,95717.38
2022-08-25T21:34:23.311Z,95712.09
2022-08-25T21:37:11.331Z,95715.72
2022-08-25T21:39:58.591Z,95716.72
2022-08-25T21:42:46.772Z,95710.53
2022-08-25T21:45:46.487Z,95717.56
2022-08-25T21:48:34.468Z,95712.91
2022-08-25T21:51:33.499Z,95709.91
2022-08-25T21:54:20.627Z,95705.31
2022-08-25T21:57:11.699Z,95709.44
2022-08-25T21:59:59.104Z,95704.47
2022-08-25T22:02:46.326Z,95712.75
2022-08-25T22:05:37.554Z,95705.78
2022-08-25T22:08:30.546Z,95704.59
2022-08-25T22:11:18.612Z,95699.47
2022-08-25T22:14:07.111Z,95700.81
2022-08-25T22:16:55.535Z,95699.31
2022-08-25T22:19:42.639Z,95698.19
2022-08-25T22:22:29.609Z,95703.13
2022-08-25T22:25:16.609Z,95714.31
2022-08-25T22:28:04.735Z,95703.78
2022-08-25T22:30:52.092Z,95702.34
2022-08-25T22:33:40.411Z,95701.16
2022-08-25T22:36:31.347Z,95690.56
2022-08-25T22:39:18.300Z,95688.72
2022-08-25T22:42:07.907Z,95695.53
2022-08-25T22:44:55.139Z,95706.78
2022-08-25T22:47:42.265Z,95701.94
2022-08-25T22:50:29.608Z,95704.63
2022-08-25T22:53:16.532Z,95694.84
2022-08-25T22:56:04.605Z,95691.56
2022-08-25T22:58:53.259Z,95692.06
2022-08-25T23:01:42.861Z,95691.88
2022-08-25T23:04:30.199Z,95701.13
2022-08-25T23:07:17.833Z,95705.56
2022-08-25T23:10:07.952Z,95705.69
2022-08-25T23:12:55.225Z,95704.63
2022-08-25T23:15:47.018Z,95699.94
2022-08-25T23:18:34.096Z,95694.50
2022-08-25T23:21:41.011Z,95688.69
2022-08-25T23:24:30.364Z,95686.41
2022-08-25T23:27:20.062Z,95682.94
2022-08-25T23:30:07.822Z,95674.31
2022-08-25T23:32:55.997Z,95683.75
2022-08-25T23:35:43.362Z,95685.88
2022-08-25T23:38:30.416Z,95685.03
2022-08-25T23:41:21.263Z,95696.88
2022-08-25T23:44:11.670Z,95695.28
2022-08-25T23:46:58.884Z,95696.75
2022-08-25T23:49:46.014Z,95684.50
2022-08-25T23:52:33.460Z,95686.38
2022-08-25T23:55:20.521Z,95684.16
2022-08-25T23:58:07.770Z,95680.31
